createdAt,value
2022-11-09T00:01:36.489Z,57.25
2022-11-09T00:04:09.746Z,57.24
2022-11-09T00:06:41.944Z,57.35
2022-11-09T00:09:14.326Z,57.38
2022-11-09T00:11:50.622Z,57.32
2022-11-09T00:14:23.112Z,57.45
2022-11-09T00:16:56.763Z,57.50
2022-11-09T00:19:30.443Z,58.00
2022-11-09T00:22:02.635Z,58.20
2022-11-09T00:24:35.998Z,57.94
2022-11-09T00:27:07.926Z,57.63
2022-11-09T00:29:43.555Z,57.60
2022-11-09T00:32:21.951Z,57.51
2022-11-09T00:34:56.236Z,57.62
2022-11-09T00:37:29.608Z,57.42
2022-11-09T00:40:02.865Z,57.59
2022-11-09T00:42:34.843Z,57.79
2022-11-09T00:45:08.969Z,57.80
2022-11-09T00:47:41.237Z,57.86
2022-11-09T00:50:13.560Z,57.81
2022-11-09T00:52:49.265Z,57.81
2022-11-09T00:55:24.283Z,57.86
2022-11-09T00:57:58.438Z,57.79
2022-11-09T01:00:30.355Z,57.67
2022-11-09T01:03:03.194Z,57.66
2022-11-09T01:05:41.788Z,57.75
2022-11-09T01:08:15.829Z,57.78
2022-11-09T01:10:50.668Z,57.90
2022-11-09T01:13:26.810Z,57.90
2022-11-09T01:15:59.652Z,57.93
2022-11-09T01:18:32.366Z,57.93
2022-11-09T01:21:07.870Z,58.15
2022-11-09T01:23:42.817Z,58.10
2022-11-09T01:26:16.805Z,58.20
2022-11-09T01:28:50.708Z,58.10
2022-11-09T01:31:23.510Z,58.03
2022-11-09T01:33:57.616Z,58.04
2022-11-09T01:36:30.516Z,58.01
2022-11-09T01:39:04.362Z,57.93
2022-11-09T01:41:36.910Z,57.77
2022-11-09T01:44:17.126Z,57.53
2022-11-09T01:46:55.066Z,57.42
2022-11-09T01:49:41.209Z,57.46
2022-11-09T01:52:17.499Z,57.45
2022-11-09T01:54:52.604Z,57.49
2022-11-09T01:57:29.625Z,57.39
2022-11-09T02:00:07.947Z,57.30
2022-11-09T02:02:42.552Z,57.39
2022-11-09T02:05:21.166Z,57.36
2022-11-09T02:07:54.005Z,57.20
2022-11-09T02:10:28.264Z,57.27
2022-11-09T02:13:07.343Z,57.18
2022-11-09T02:15:44.437Z,56.96
2022-11-09T02:18:19.240Z,56.81
2022-11-09T02:20:54.426Z,56.84
2022-11-09T02:23:27.226Z,56.66
2022-11-09T02:26:02.938Z,56.66
2022-11-09T02:28:34.996Z,57.21
2022-11-09T02:31:09.704Z,57.11
2022-11-09T02:33:56.369Z,57.17
2022-11-09T02:36:28.778Z,57.22
2022-11-09T02:39:01.445Z,57.07
2022-11-09T02:41:36.834Z,57.19
2022-11-09T02:44:08.970Z,57.22
2022-11-09T02:46:43.142Z,57.15
2022-11-09T02:49:18.298Z,57.18
2022-11-09T02:51:51.542Z,57.22
2022-11-09T02:54:24.399Z,57.22
2022-11-09T02:56:57.768Z,57.20
2022-11-09T02:59:30.012Z,57.08
2022-11-09T03:02:04.738Z,57.06
2022-11-09T03:04:39.432Z,57.20
2022-11-09T03:07:12.325Z,57.45
2022-11-09T03:09:44.515Z,57.40
2022-11-09T03:12:32.071Z,57.37
2022-11-09T03:15:07.737Z,57.30
2022-11-09T03:17:39.831Z,57.47
2022-11-09T03:20:13.849Z,57.57
2022-11-09T03:22:45.610Z,57.78
2022-11-09T03:25:20.518Z,57.94
2022-11-09T03:27:52.776Z,57.86
2022-11-09T03:30:28.036Z,57.80
2022-11-09T03:33:06.573Z,57.89
2022-11-09T03:35:38.622Z,57.92
2022-11-09T03:38:10.703Z,57.89
2022-11-09T03:40:42.630Z,57.98
2022-11-09T03:43:14.716Z,57.99
2022-11-09T03:45:47.490Z,57.94
2022-11-09T03:48:20.055Z,57.88
2022-11-09T03:50:53.274Z,57.95
2022-11-09T03:53:25.285Z,58.02
2022-11-09T03:56:00.635Z,57.96
2022-11-09T03:58:33.630Z,57.86
2022-11-09T04:01:05.506Z,58.01
2022-11-09T04:03:41.756Z,58.13
2022-11-09T04:06:15.306Z,58.14
2022-11-09T04:08:51.462Z,57.90
2022-11-09T04:11:24.233Z,58.06
2022-11-09T04:13:58.554Z,58.09
2022-11-09T04:16:31.024Z,58.11
2022-11-09T04:19:04.019Z,58.72
2022-11-09T04:21:37.634Z,58.56
2022-11-09T04:24:11.897Z,58.03
2022-11-09T04:26:44.593Z,57.92
2022-11-09T04:29:17.424Z,57.94
2022-11-09T04:31:51.910Z,58.10
2022-11-09T04:34:25.485Z,58.59
2022-11-09T04:36:59.129Z,58.07
2022-11-09T04:39:32.820Z,58.03
2022-11-09T04:42:06.575Z,57.97
2022-11-09T04:44:38.916Z,57.94
2022-11-09T04:47:11.528Z,58.01
2022-11-09T04:49:44.089Z,57.99
2022-11-09T04:52:20.003Z,57.83
2022-11-09T04:54:54.042Z,57.87
2022-11-09T04:57:26.186Z,57.76
2022-11-09T04:59:57.964Z,57.95
2022-11-09T05:02:32.061Z,58.06
2022-11-09T05:05:04.339Z,58.07
2022-11-09T05:07:37.640Z,58.03
2022-11-09T05:10:10.527Z,57.63
2022-11-09T05:12:45.609Z,57.62
2022-11-09T05:15:18.478Z,57.89
2022-11-09T05:17:50.888Z,58.13
2022-11-09T05:20:23.907Z,57.89
2022-11-09T05:23:17.626Z,57.80
2022-11-09T05:25:52.256Z,57.81
2022-11-09T05:28:31.029Z,57.85
2022-11-09T05:31:04.318Z,57.87
2022-11-09T05:33:39.223Z,57.82
2022-11-09T05:36:12.839Z,57.59
2022-11-09T05:38:44.693Z,57.54
2022-11-09T05:41:17.351Z,57.76
2022-11-09T05:43:51.114Z,57.82
2022-11-09T05:46:23.033Z,57.69
2022-11-09T05:48:57.593Z,57.69
2022-11-09T05:51:33.342Z,57.69
2022-11-09T05:54:05.996Z,57.81
2022-11-09T05:56:39.845Z,57.72
2022-11-09T05:59:13.054Z,57.75
2022-11-09T06:01:46.114Z,57.84
2022-11-09T06:04:18.680Z,58.08
2022-11-09T06:06:52.318Z,58.53
2022-11-09T06:09:26.307Z,58.65
2022-11-09T06:11:59.288Z,58.64
2022-11-09T06:14:40.553Z,58.04
2022-11-09T06:17:12.500Z,58.13
2022-11-09T06:19:44.391Z,58.08
2022-11-09T06:22:16.614Z,58.03
2022-11-09T06:24:49.216Z,57.86
2022-11-09T06:27:21.981Z,57.94
2022-11-09T06:29:55.211Z,57.89
2022-11-09T06:32:27.317Z,57.92
2022-11-09T06:35:02.928Z,57.84
2022-11-09T06:37:35.422Z,57.97
2022-11-09T06:40:10.150Z,58.00
2022-11-09T06:42:45.381Z,58.04
2022-11-09T06:45:18.054Z,58.03
2022-11-09T06:47:50.380Z,58.00
2022-11-09T06:50:22.586Z,58.00
2022-11-09T06:52:59.264Z,57.99
2022-11-09T06:55:33.130Z,58.01
2022-11-09T06:58:09.210Z,58.16
2022-11-09T07:00:41.373Z,58.23
2022-11-09T07:03:16.613Z,58.38
2022-11-09T07:05:49.649Z,58.22
2022-11-09T07:08:24.172Z,58.26
2022-11-09T07:10:56.633Z,58.47
2022-11-09T07:13:28.663Z,58.69
2022-11-09T07:16:02.598Z,59.18
2022-11-09T07:18:36.438Z,58.70
2022-11-09T07:21:14.242Z,59.07
2022-11-09T07:23:48.808Z,59.25
2022-11-09T07:26:21.689Z,59.17
2022-11-09T07:28:55.259Z,59.14
2022-11-09T07:31:29.753Z,58.92
2022-11-09T07:34:05.413Z,58.51
2022-11-09T07:36:37.872Z,58.55
2022-11-09T07:39:09.812Z,58.56
2022-11-09T07:41:41.629Z,58.74
2022-11-09T07:44:18.245Z,58.86
2022-11-09T07:46:51.590Z,58.83
2022-11-09T07:49:24.307Z,58.75
2022-11-09T07:51:57.008Z,58.63
2022-11-09T07:54:29.816Z,58.27
2022-11-09T07:57:02.885Z,58.15
2022-11-09T07:59:37.079Z,57.97
2022-11-09T08:02:12.993Z,57.68
2022-11-09T08:04:45.773Z,57.52
2022-11-09T08:07:19.799Z,57.30
2022-11-09T08:09:51.994Z,57.35
2022-11-09T08:12:24.942Z,57.05
2022-11-09T08:14:57.396Z,56.70
2022-11-09T08:17:29.686Z,56.44
2022-11-09T08:20:05.108Z,56.22
2022-11-09T08:22:43.966Z,55.65
2022-11-09T08:25:16.813Z,55.34
2022-11-09T08:27:51.074Z,55.34
2022-11-09T08:30:24.050Z,55.12
2022-11-09T08:32:56.990Z,55.07
2022-11-09T08:35:34.564Z,54.74
2022-11-09T08:38:09.613Z,54.55
2022-11-09T08:40:46.550Z,54.23
2022-11-09T08:43:21.825Z,54.17
2022-11-09T08:45:55.629Z,54.04
2022-11-09T08:48:33.740Z,53.76
2022-11-09T08:51:08.964Z,53.58
2022-11-09T08:53:45.959Z,53.56
2022-11-09T08:56:20.689Z,53.34
2022-11-09T08:58:54.568Z,52.85
2022-11-09T09:01:30.287Z,52.62
2022-11-09T09:04:07.280Z,52.63
2022-11-09T09:06:42.957Z,52.98
2022-11-09T09:09:19.731Z,52.76
2022-11-09T09:11:53.964Z,52.66
2022-11-09T09:14:28.923Z,52.43
2022-11-09T09:17:03.617Z,51.97
2022-11-09T09:19:38.565Z,51.97
2022-11-09T09:22:13.899Z,51.86
2022-11-09T09:24:48.572Z,51.90
2022-11-09T09:27:22.750Z,51.53
2022-11-09T09:29:57.427Z,51.75
2022-11-09T09:32:31.598Z,51.27
2022-11-09T09:35:06.156Z,51.15
2022-11-09T09:37:42.906Z,51.18
2022-11-09T09:40:27.042Z,50.97
2022-11-09T09:43:02.686Z,50.80
2022-11-09T09:45:38.075Z,50.59
2022-11-09T09:48:22.761Z,50.37
2022-11-09T09:50:57.240Z,50.62
2022-11-09T09:53:36.592Z,50.55
2022-11-09T09:56:16.013Z,50.65
2022-11-09T09:58:51.712Z,50.49
2022-11-09T10:01:28.654Z,50.54
2022-11-09T10:04:01.999Z,50.45
2022-11-09T10:06:42.025Z,50.21
2022-11-09T10:09:21.685Z,50.02
2022-11-09T10:12:01.720Z,49.94
2022-11-09T10:14:46.164Z,50.17
2022-11-09T10:17:25.443Z,50.03
2022-11-09T10:20:09.015Z,49.64
2022-11-09T10:22:47.202Z,49.78
2022-11-09T10:25:43.388Z,49.25
2022-11-09T10:28:17.541Z,49.73
2022-11-09T10:30:49.619Z,49.26
2022-11-09T10:33:22.542Z,48.87
2022-11-09T10:35:56.558Z,49.22
2022-11-09T10:38:38.117Z,48.81
2022-11-09T10:41:23.682Z,48.88
2022-11-09T10:43:58.119Z,48.91
2022-11-09T10:46:31.686Z,48.88
2022-11-09T10:49:21.535Z,48.55
2022-11-09T10:51:53.606Z,48.36
2022-11-09T10:54:29.254Z,48.13
2022-11-09T10:57:13.928Z,48.26
2022-11-09T10:59:52.072Z,48.17
2022-11-09T11:02:50.145Z,48.00
2022-11-09T11:05:35.132Z,47.57
2022-11-09T11:08:27.361Z,47.16
2022-11-09T11:11:33.259Z,47.02
2022-11-09T11:14:23.515Z,47.01
2022-11-09T11:16:57.961Z,46.53
2022-11-09T11:19:37.626Z,46.68
2022-11-09T11:22:23.153Z,46.80
2022-11-09T11:24:59.044Z,46.69
2022-11-09T11:27:39.647Z,46.67
2022-11-09T11:30:18.279Z,46.45
2022-11-09T11:32:51.545Z,46.43
2022-11-09T11:35:35.002Z,46.29
2022-11-09T11:38:18.240Z,45.46
2022-11-09T11:41:02.607Z,45.05
2022-11-09T11:43:45.544Z,45.17
2022-11-09T11:46:23.487Z,44.91
2022-11-09T11:49:15.937Z,44.69
2022-11-09T11:51:54.292Z,44.76
2022-11-09T11:54:32.356Z,44.47
2022-11-09T11:57:18.700Z,44.75
2022-11-09T12:00:10.538Z,44.61
2022-11-09T12:03:15.248Z,44.44
2022-11-09T12:05:59.562Z,43.91
2022-11-09T12:08:40.473Z,43.89
2022-11-09T12:11:16.895Z,43.78
2022-11-09T12:14:00.093Z,43.60
2022-11-09T12:16:41.072Z,42.91
2022-11-09T12:19:35.233Z,43.37
2022-11-09T12:22:17.721Z,44.01
2022-11-09T12:24:59.571Z,43.90
2022-11-09T12:27:48.276Z,44.34
2022-11-09T12:30:22.394Z,44.09
2022-11-09T12:32:57.861Z,44.16
2022-11-09T12:35:33.797Z,43.92
2022-11-09T12:38:14.158Z,44.21
2022-11-09T12:40:52.165Z,44.19
2022-11-09T12:43:29.721Z,43.88
2022-11-09T12:46:03.326Z,43.43
2022-11-09T12:48:36.250Z,43.25
2022-11-09T12:51:10.229Z,43.51
2022-11-09T12:53:43.164Z,43.26
2022-11-09T12:56:24.141Z,42.90
2022-11-09T12:59:29.530Z,42.88
2022-11-09T13:02:05.377Z,42.81
2022-11-09T13:04:37.926Z,42.76
2022-11-09T13:07:39.610Z,42.25
2022-11-09T13:10:28.313Z,42.25
2022-11-09T13:13:22.971Z,42.48
2022-11-09T13:16:12.535Z,42.50
2022-11-09T13:18:53.562Z,42.50
2022-11-09T13:21:37.897Z,42.63
2022-11-09T13:24:57.185Z,42.69
2022-11-09T13:27:47.207Z,42.99
2022-11-09T13:30:53.246Z,43.16
2022-11-09T13:33:27.410Z,42.90
2022-11-09T13:36:16.005Z,42.75
2022-11-09T13:38:48.387Z,42.86
2022-11-09T13:41:44.460Z,43.15
2022-11-09T13:44:32.811Z,43.66
2022-11-09T13:47:25.306Z,43.78
2022-11-09T13:49:57.773Z,43.83
2022-11-09T13:52:59.762Z,43.88
2022-11-09T13:55:39.034Z,44.01
2022-11-09T13:58:25.059Z,44.02
2022-11-09T14:00:57.744Z,43.97
2022-11-09T14:03:31.718Z,44.17
2022-11-09T14:06:05.542Z,44.69
2022-11-09T14:08:40.742Z,44.76
2022-11-09T14:11:36.028Z,44.96
2022-11-09T14:14:28.736Z,44.68
2022-11-09T14:17:08.453Z,44.66
2022-11-09T14:19:48.040Z,45.20
2022-11-09T14:22:22.696Z,45.43
2022-11-09T14:24:55.673Z,45.44
2022-11-09T14:27:30.790Z,45.67
2022-11-09T14:30:14.984Z,45.80
2022-11-09T14:32:53.489Z,45.66
2022-11-09T14:35:28.777Z,45.91
2022-11-09T14:38:05.552Z,46.06
2022-11-09T14:40:38.405Z,46.26
2022-11-09T14:43:31.015Z,46.37
2022-11-09T14:46:04.465Z,46.46
2022-11-09T14:48:38.950Z,46.54
2022-11-09T14:51:16.729Z,46.68
2022-11-09T14:53:50.532Z,46.87
2022-11-09T14:56:23.589Z,47.06
2022-11-09T14:58:58.085Z,47.18
2022-11-09T15:01:31.028Z,47.18
2022-11-09T15:04:20.272Z,47.01
2022-11-09T15:06:57.966Z,47.18
2022-11-09T15:09:36.573Z,47.38
2022-11-09T15:12:16.056Z,47.42
2022-11-09T15:14:54.388Z,47.47
2022-11-09T15:17:29.221Z,47.62
2022-11-09T15:20:05.029Z,47.65
2022-11-09T15:22:53.515Z,47.80
2022-11-09T15:25:29.152Z,47.96
2022-11-09T15:28:19.114Z,48.09
2022-11-09T15:31:12.822Z,48.15
2022-11-09T15:33:53.099Z,48.29
2022-11-09T15:36:38.941Z,48.36
2022-11-09T15:39:19.006Z,48.37
2022-11-09T15:41:51.326Z,48.42
2022-11-09T15:44:23.637Z,48.48
2022-11-09T15:46:57.088Z,48.61
2022-11-09T15:49:30.708Z,48.76
2022-11-09T15:52:04.002Z,48.87
2022-11-09T15:54:36.474Z,49.00
2022-11-09T15:57:11.309Z,49.18
2022-11-09T15:59:44.111Z,49.27
2022-11-09T16:09:34.315Z,49.80
2022-11-09T16:12:07.949Z,49.92
2022-11-09T16:14:40.333Z,49.98
2022-11-09T16:17:12.963Z,50.05
2022-11-09T16:19:44.760Z,50.14
2022-11-09T16:22:20.804Z,50.22
2022-11-09T16:24:52.940Z,50.29
2022-11-09T16:27:49.108Z,50.39
2022-11-09T16:30:18.763Z,50.36
2022-11-09T16:32:52.284Z,50.49
2022-11-09T16:35:27.583Z,50.47
2022-11-09T16:38:01.241Z,50.59
2022-11-09T16:40:36.727Z,50.68
2022-11-09T16:43:09.392Z,50.64
2022-11-09T16:45:48.802Z,50.67
2022-11-09T16:48:21.788Z,50.83
2022-11-09T16:50:55.109Z,50.96
2022-11-09T16:53:27.467Z,51.01
2022-11-09T16:56:00.947Z,51.16
2022-11-09T16:58:36.800Z,51.21
2022-11-09T17:01:11.957Z,51.29
2022-11-09T17:03:44.875Z,51.48
2022-11-09T17:06:21.819Z,51.48
2022-11-09T17:08:59.734Z,51.58
2022-11-09T17:11:34.572Z,51.72
2022-11-09T17:14:08.841Z,51.89
2022-11-09T17:16:43.105Z,51.91
2022-11-09T17:19:17.901Z,52.08
2022-11-09T17:21:50.781Z,52.27
2022-11-09T17:24:23.929Z,52.35
2022-11-09T17:26:59.834Z,52.35
2022-11-09T17:29:32.910Z,52.48
2022-11-09T17:32:05.975Z,52.55
2022-11-09T17:34:41.677Z,52.52
2022-11-09T17:37:13.935Z,52.57
2022-11-09T17:39:47.352Z,52.75
2022-11-09T17:42:21.451Z,52.80
2022-11-09T17:44:53.783Z,52.90
2022-11-09T17:47:30.072Z,52.99
2022-11-09T17:50:03.049Z,52.95
2022-11-09T17:52:36.708Z,53.08
2022-11-09T17:55:13.224Z,53.08
2022-11-09T17:57:50.532Z,53.05
2022-11-09T18:00:24.317Z,53.19
2022-11-09T18:02:58.603Z,53.26
2022-11-09T18:05:31.396Z,53.27
2022-11-09T18:08:03.981Z,53.37
2022-11-09T18:10:37.889Z,53.40
2022-11-09T18:13:13.345Z,53.59
2022-11-09T18:15:49.110Z,53.61
2022-11-09T18:18:26.717Z,53.57
2022-11-09T18:20:58.852Z,53.70
2022-11-09T18:23:31.763Z,53.71
2022-11-09T18:26:05.228Z,53.85
2022-11-09T18:28:39.186Z,53.91
2022-11-09T18:31:13.525Z,54.09
2022-11-09T18:33:46.106Z,54.17
2022-11-09T18:36:19.789Z,54.33
2022-11-09T18:38:55.832Z,54.36
2022-11-09T18:41:28.280Z,54.55
2022-11-09T18:44:02.510Z,54.55
2022-11-09T18:46:35.781Z,54.51
2022-11-09T18:49:13.897Z,54.67
2022-11-09T18:51:47.570Z,54.77
2022-11-09T18:54:22.277Z,54.86
2022-11-09T18:56:55.108Z,54.89
2022-11-09T18:59:27.911Z,54.97
2022-11-09T19:02:04.464Z,55.06
2022-11-09T19:04:38.037Z,55.21
2022-11-09T19:07:10.488Z,55.21
2022-11-09T19:09:47.025Z,55.13
2022-11-09T19:12:19.795Z,55.20
2022-11-09T19:14:52.287Z,55.42
2022-11-09T19:17:24.065Z,55.66
2022-11-09T19:19:56.210Z,55.43
2022-11-09T19:22:31.037Z,55.52
2022-11-09T19:25:04.570Z,55.58
2022-11-09T19:27:39.071Z,55.62
2022-11-09T19:30:13.724Z,55.69
2022-11-09T19:32:45.782Z,55.84
2022-11-09T19:35:24.863Z,55.92
2022-11-09T19:38:05.987Z,56.02
2022-11-09T19:40:40.500Z,55.96
2022-11-09T19:43:13.692Z,55.97
2022-11-09T19:45:45.854Z,56.07
2022-11-09T19:48:19.163Z,56.00
2022-11-09T19:50:52.781Z,56.02
2022-11-09T19:53:26.424Z,56.07
2022-11-09T19:56:05.161Z,56.27
2022-11-09T19:58:40.842Z,56.27
2022-11-09T20:01:16.473Z,56.36
2022-11-09T20:03:51.290Z,56.26
2022-11-09T20:06:24.725Z,56.33
2022-11-09T20:08:59.559Z,56.34
2022-11-09T20:11:51.226Z,56.41
2022-11-09T20:14:25.147Z,56.35
2022-11-09T20:17:03.057Z,56.41
2022-11-09T20:19:35.823Z,56.43
2022-11-09T20:22:08.712Z,56.49
2022-11-09T20:24:41.073Z,56.49
2022-11-09T20:27:16.903Z,56.49
2022-11-09T20:29:51.399Z,56.51
2022-11-09T20:32:25.478Z,56.56
2022-11-09T20:34:58.760Z,56.53
2022-11-09T20:37:32.669Z,56.58
2022-11-09T20:40:08.131Z,56.50
2022-11-09T20:42:43.803Z,56.58
2022-11-09T20:45:16.607Z,56.56
2022-11-09T20:48:07.695Z,56.67
2022-11-09T20:50:42.997Z,56.64
2022-11-09T20:53:16.208Z,56.67
2022-11-09T20:55:50.032Z,56.78
2022-11-09T20:58:24.121Z,56.72
2022-11-09T21:01:05.463Z,56.85
2022-11-09T21:03:38.274Z,56.85
2022-11-09T21:06:12.465Z,56.91
2022-11-09T21:08:47.505Z,56.95
2022-11-09T21:11:22.295Z,57.17
2022-11-09T21:13:56.520Z,57.27
2022-11-09T21:16:30.764Z,57.22
2022-11-09T21:19:06.177Z,57.32
2022-11-09T21:21:40.625Z,57.48
2022-11-09T21:24:34.142Z,58.13
2022-11-09T21:27:31.655Z,58.07
2022-11-09T21:30:05.030Z,58.14
2022-11-09T21:32:36.970Z,58.15
2022-11-09T21:35:11.515Z,58.29
2022-11-09T21:37:43.940Z,58.16
2022-11-09T21:40:17.833Z,57.91
2022-11-09T21:42:51.175Z,58.23
2022-11-09T21:45:24.547Z,58.49
2022-11-09T21:48:01.322Z,57.82
2022-11-09T21:50:35.789Z,57.70
2022-11-09T21:53:09.083Z,57.55
2022-11-09T21:55:41.257Z,57.60
2022-11-09T21:58:13.271Z,58.25
2022-11-09T22:00:48.104Z,58.13
2022-11-09T22:03:22.166Z,57.53
2022-11-09T22:05:54.384Z,57.41
2022-11-09T22:08:28.621Z,57.44
2022-11-09T22:11:07.783Z,57.33
2022-11-09T22:14:00.842Z,57.21
2022-11-09T22:16:35.786Z,57.14
2022-11-09T22:19:26.730Z,57.17
2022-11-09T22:22:00.764Z,57.21
2022-11-09T22:24:32.637Z,57.28
2022-11-09T22:27:05.859Z,57.21
2022-11-09T22:29:37.776Z,57.32
2022-11-09T22:32:11.007Z,57.18
2022-11-09T22:34:44.983Z,57.19
2022-11-09T22:37:16.990Z,57.27
2022-11-09T22:39:49.404Z,57.22
2022-11-09T22:42:21.227Z,57.17
2022-11-09T22:44:53.300Z,57.25
2022-11-09T22:47:28.090Z,57.26
2022-11-09T22:50:00.607Z,57.21
2022-11-09T22:52:33.822Z,57.22
2022-11-09T22:55:09.094Z,57.17
2022-11-09T22:57:43.721Z,57.06
2022-11-09T23:00:19.249Z,56.99
2022-11-09T23:02:52.485Z,56.89
2022-11-09T23:05:24.720Z,57.03
2022-11-09T23:07:59.142Z,57.07
2022-11-09T23:10:32.360Z,57.11
2022-11-09T23:13:08.304Z,57.13
2022-11-09T23:15:40.229Z,57.23
2022-11-09T23:18:29.865Z,57.31
2022-11-09T23:21:03.785Z,57.40
2022-11-09T23:23:35.803Z,57.26
2022-11-09T23:26:08.377Z,57.18
2022-11-09T23:28:40.542Z,57.24
2022-11-09T23:31:14.441Z,57.14
2022-11-09T23:33:46.408Z,57.16
2022-11-09T23:36:18.620Z,56.93
2022-11-09T23:38:50.649Z,56.73
2022-11-09T23:41:22.640Z,56.80
2022-11-09T23:43:57.141Z,56.84
2022-11-09T23:46:28.926Z,56.96
2022-11-09T23:49:00.842Z,56.88
2022-11-09T23:51:32.557Z,56.82
2022-11-09T23:54:05.321Z,56.72
2022-11-09T23:56:37.096Z,56.78
2022-11-09T23:59:09.225Z,56.69
